Anglian Lady — VOLP — position and weather

sailwx.info

Track history (hours):
 
Tides and Currents Weather Stations Pressure Air Temp Water Temp Dewpoint Dewpoint Depression Visibility Wind Speed Wind Dir Waves Ship Positions

Anglian Lady

Last reported at 2015-Aug-02 01:07 UTC. Time now 2015-Aug-02 12:23 UTC.
Position N 45°57' W 083°53'.

Length 32 m.

Type: Tug. MMSI: 316002238.

Date/timePositionNaut miles runAvg speedWind from/ knotsBaromVisibWave heightAir tempDewpointWater temp
2015-Aug-02 01:07N 45°57' W 083°53'  
2015-Jul-29 21:27N 45°52' W 084°10'8 9.5
2015-Jul-29 20:33N 45°51' W 084°22'9 9.4
2015-Jul-29 19:33N 45°51' W 084°36'9 9.0
2015-Jul-29 18:33N 45°49' W 084°49'10 9.6
2015-Jul-29 17:33N 45°50' W 085°02'7 7.3
2015-Jul-29 16:33N 45°44' W 085°10'9 9.3
2015-Jul-29 15:33N 45°37' W 085°17'9 9.4
2015-Jul-29 14:33N 45°29' W 085°25'9 9.3
2015-Jul-29 13:33N 45°22' W 085°33'9 9.3
2015-Jul-29 12:33N 45°15' W 085°41'9 9.2
2015-Jul-29 11:33N 45°07' W 085°49'  
2015-Jul-25 21:22N 45°00' W 085°58'6 7.0
2015-Jul-25 20:33N 45°05' W 085°54'7 7.4
2015-Jul-25 19:33N 45°11' W 085°48'7 7.4
2015-Jul-25 18:33N 45°17' W 085°42'7 7.5
2015-Jul-25 17:33N 45°23' W 085°35'8 7.5
2015-Jul-25 16:33N 45°29' W 085°29'7 7.5
2015-Jul-25 15:33N 45°35' W 085°22'7 7.4
2015-Jul-25 14:33N 45°41' W 085°16'7 7.1
2015-Jul-25 13:33N 45°46' W 085°09'5 5.4
2015-Jul-25 12:33N 45°50' W 085°04'7 6.9
2015-Jul-25 11:33N 45°49' W 084°54'7 6.7
2015-Jul-25 10:33N 45°49' W 084°45'6 6.2
2015-Jul-25 09:33N 45°51' W 084°36'7 6.9
2015-Jul-25 08:33N 45°52' W 084°26'7 6.7
2015-Jul-25 07:33N 45°53' W 084°17'7 6.7
2015-Jul-25 06:33N 45°54' W 084°07'  
Track history (hours):
 
Tides and Currents Weather Stations Pressure Air Temp Water Temp Dewpoint Dewpoint Depression Visibility Wind Speed Wind Dir Waves Ship Positions

Anglian Lady

Last reported at 2015-Aug-02 01:07 UTC. Time now 2015-Aug-02 12:23 UTC.
Position N 45°57' W 083°53'.

Length 32 m.

Type: Tug. MMSI: 316002238.

Date/timePositionNaut miles runAvg speedWind from/ knotsBaromVisibWave heightAir tempDewpointWater temp
2015-Aug-02 01:07N 45°57' W 083°53'  
2015-Jul-29 21:27N 45°52' W 084°10'8 9.5
2015-Jul-29 20:33N 45°51' W 084°22'9 9.4
2015-Jul-29 19:33N 45°51' W 084°36'9 9.0
2015-Jul-29 18:33N 45°49' W 084°49'10 9.6
2015-Jul-29 17:33N 45°50' W 085°02'7 7.3
2015-Jul-29 16:33N 45°44' W 085°10'9 9.3
2015-Jul-29 15:33N 45°37' W 085°17'9 9.4
2015-Jul-29 14:33N 45°29' W 085°25'9 9.3
2015-Jul-29 13:33N 45°22' W 085°33'9 9.3
2015-Jul-29 12:33N 45°15' W 085°41'9 9.2
2015-Jul-29 11:33N 45°07' W 085°49'  
2015-Jul-25 21:22N 45°00' W 085°58'6 7.0
2015-Jul-25 20:33N 45°05' W 085°54'7 7.4
2015-Jul-25 19:33N 45°11' W 085°48'7 7.4
2015-Jul-25 18:33N 45°17' W 085°42'7 7.5
2015-Jul-25 17:33N 45°23' W 085°35'8 7.5
2015-Jul-25 16:33N 45°29' W 085°29'7 7.5
2015-Jul-25 15:33N 45°35' W 085°22'7 7.4
2015-Jul-25 14:33N 45°41' W 085°16'7 7.1
2015-Jul-25 13:33N 45°46' W 085°09'5 5.4
2015-Jul-25 12:33N 45°50' W 085°04'7 6.9
2015-Jul-25 11:33N 45°49' W 084°54'7 6.7
2015-Jul-25 10:33N 45°49' W 084°45'6 6.2
2015-Jul-25 09:33N 45°51' W 084°36'7 6.9
2015-Jul-25 08:33N 45°52' W 084°26'7 6.7
2015-Jul-25 07:33N 45°53' W 084°17'7 6.7
2015-Jul-25 06:33N 45°54' W 084°07'  

Dump ship's entire track history